createdAt,value
2022-09-20T00:01:16.227Z,61.15625
2022-09-20T00:03:15.992Z,61.59375
2022-09-20T00:05:16.062Z,61.89355
2022-09-20T00:07:16.046Z,61.51172
2022-09-20T00:09:46.765Z,61.85938
2022-09-20T00:11:46.759Z,61.71387
2022-09-20T00:13:46.731Z,62.0957
2022-09-20T00:15:46.799Z,61.77637
2022-09-20T00:17:46.765Z,62.14063
2022-09-20T00:19:46.747Z,61.9209
2022-09-20T00:21:46.760Z,62.27246
2022-09-20T00:23:46.730Z,62.11426
2022-09-20T00:25:07.065Z,62.44727
2022-09-20T00:27:07.252Z,62.1709
2022-09-20T00:29:07.049Z,62.40723
2022-09-20T00:31:07.064Z,62.26758
2022-09-20T00:33:07.082Z,62.85449
2022-09-20T00:35:07.045Z,62.67578
2022-09-20T00:37:07.031Z,62.82324
2022-09-20T00:40:37.977Z,62.83496
2022-09-20T00:42:37.871Z,63.02344
2022-09-20T00:44:37.877Z,62.47949
2022-09-20T00:46:37.933Z,62.97949
2022-09-20T00:48:37.839Z,62.66113
2022-09-20T00:50:37.851Z,62.76074
2022-09-20T00:52:38.063Z,62.81543
2022-09-20T00:55:31.468Z,61.69629
2022-09-20T00:57:31.404Z,62.21777
2022-09-20T00:59:31.421Z,62.63965
2022-09-20T01:01:31.566Z,62.90137
2022-09-20T01:03:31.432Z,62.5
2022-09-20T01:05:31.429Z,62.48145
2022-09-20T01:07:31.413Z,62.6084
2022-09-20T01:10:34.222Z,62.46289
2022-09-20T01:12:34.230Z,62.12988
2022-09-20T01:14:34.246Z,62.09766
2022-09-20T01:16:34.334Z,62.10059
2022-09-20T01:18:34.214Z,62.50195
2022-09-20T01:20:34.273Z,63.2168
2022-09-20T01:22:34.256Z,62.6875
2022-09-20T01:25:57.815Z,62.56348
2022-09-20T01:27:57.833Z,62.69336
2022-09-20T01:29:57.847Z,62.49902
2022-09-20T01:31:58.059Z,62.68945
2022-09-20T01:33:57.804Z,62.84668
2022-09-20T01:35:57.799Z,63.07617
2022-09-20T01:37:57.825Z,62.8623
2022-09-20T01:41:25.098Z,62.76953
2022-09-20T01:43:25.082Z,62.97461
2022-09-20T01:45:25.109Z,63.12012
2022-09-20T01:47:25.130Z,62.85938
2022-09-20T01:49:25.098Z,63.12988
2022-09-20T01:51:25.060Z,63.41602
2022-09-20T01:53:25.118Z,63.06055
2022-09-20T01:56:33.016Z,63.58105
2022-09-20T01:58:33.013Z,63.48438
2022-09-20T02:00:33.104Z,63.09766
2022-09-20T02:02:33.213Z,63.17676
2022-09-20T02:04:33.032Z,63.35645
2022-09-20T02:06:33.076Z,63.38184
2022-09-20T02:08:33.005Z,63.76367
2022-09-20T02:11:56.522Z,63.88379
2022-09-20T02:13:56.544Z,63.77246
2022-09-20T02:15:56.563Z,63.77246
2022-09-20T02:17:56.550Z,63.61914
2022-09-20T02:19:56.538Z,63.87891
2022-09-20T02:21:56.551Z,63.86719
2022-09-20T02:23:56.480Z,63.89746
2022-09-20T02:27:04.509Z,63.67383
2022-09-20T02:29:04.509Z,64.20508
2022-09-20T02:31:04.497Z,63.67871
2022-09-20T02:33:04.477Z,64.27051
2022-09-20T02:35:04.491Z,64.375
2022-09-20T02:37:04.466Z,63.91602
2022-09-20T02:39:04.497Z,64.03418
2022-09-20T02:41:51.966Z,63.96875
2022-09-20T02:43:51.964Z,63.92188
2022-09-20T02:45:52.124Z,64.13086
2022-09-20T02:47:51.993Z,64.13379
2022-09-20T02:49:51.975Z,64.27051
2022-09-20T02:51:52.038Z,64.20605
2022-09-20T02:53:52.210Z,64.18555
2022-09-20T02:57:05.359Z,64.06738
2022-09-20T02:59:05.536Z,64.01758
2022-09-20T03:01:05.545Z,63.96289
2022-09-20T03:03:05.340Z,63.79199
2022-09-20T03:05:05.356Z,63.96094
2022-09-20T03:07:05.330Z,64.20117
2022-09-20T03:09:05.353Z,64.29102
2022-09-20T03:11:58.327Z,64.35938
2022-09-20T03:13:58.342Z,64.39063
2022-09-20T03:15:58.296Z,64.10254
2022-09-20T03:17:58.314Z,64.27539
2022-09-20T03:19:58.373Z,64.0459
2022-09-20T03:21:58.292Z,63.96191
2022-09-20T03:23:58.322Z,64.20801
2022-09-20T03:27:40.118Z,64.15039
2022-09-20T03:29:40.065Z,64.11328
2022-09-20T03:31:40.272Z,64.25781
2022-09-20T03:33:40.063Z,64.24902
2022-09-20T03:35:40.098Z,64.5625
2022-09-20T03:37:40.052Z,64.16113
2022-09-20T03:39:40.116Z,64.40527
2022-09-20T03:42:39.766Z,64.79395
2022-09-20T03:44:39.831Z,64.62988
2022-09-20T03:46:39.824Z,64.97168
2022-09-20T03:48:39.812Z,65.20898
2022-09-20T03:50:39.810Z,65.34082
2022-09-20T03:52:39.805Z,65.16895
2022-09-20T03:54:39.760Z,65.01465
2022-09-20T03:57:52.972Z,65.16113
2022-09-20T03:59:52.967Z,65.31445
2022-09-20T04:01:53.182Z,65.26367
2022-09-20T04:03:53.006Z,64.77832
2022-09-20T04:05:52.965Z,64.99023
2022-09-20T04:07:53.014Z,64.94531
2022-09-20T04:09:53.126Z,64.82227
2022-09-20T04:13:11.917Z,64.89551
2022-09-20T04:15:11.950Z,65.34375
2022-09-20T04:17:11.885Z,65.33887
2022-09-20T04:19:11.886Z,65.19531
2022-09-20T04:21:11.915Z,65.03027
2022-09-20T04:23:11.921Z,65.73242
2022-09-20T04:25:11.864Z,65.66113
2022-09-20T04:27:55.468Z,65.85742
2022-09-20T04:29:55.499Z,65.80762
2022-09-20T04:31:55.588Z,65.55859
2022-09-20T04:33:55.508Z,65.48828
2022-09-20T04:35:55.456Z,65.90918
2022-09-20T04:37:55.487Z,65.70508
2022-09-20T04:39:55.474Z,65.68164
2022-09-20T04:43:41.430Z,66.06934
2022-09-20T04:45:41.487Z,65.70605
2022-09-20T04:47:41.348Z,65.28418
2022-09-20T04:49:41.397Z,65.05469
2022-09-20T04:51:41.377Z,65.61523
2022-09-20T04:53:41.387Z,65.49414
2022-09-20T04:55:41.375Z,65.30762
2022-09-20T04:58:04.476Z,65.1748
2022-09-20T05:00:04.494Z,64.83496
2022-09-20T05:02:04.654Z,64.50879
2022-09-20T05:04:04.501Z,63.46387
2022-09-20T05:06:04.529Z,60.63086
2022-09-20T05:08:04.496Z,54.81934
2022-09-20T05:10:04.472Z,54.86719
2022-09-20T05:12:04.490Z,55.88574
2022-09-20T05:14:03.056Z,57.00098
2022-09-20T05:16:03.053Z,59.08984
2022-09-20T05:18:02.997Z,60.00391
2022-09-20T05:20:02.980Z,60.19824
2022-09-20T05:22:02.940Z,59.41992
2022-09-20T05:24:02.937Z,56.7002
2022-09-20T05:26:02.937Z,52.41895
2022-09-20T05:28:56.736Z,52.30371
2022-09-20T05:30:56.760Z,53.18262
2022-09-20T05:32:56.708Z,54.79492
2022-09-20T05:34:56.767Z,54.97461
2022-09-20T05:36:56.698Z,56.19434
2022-09-20T05:39:00.210Z,56.37695
2022-09-20T05:40:56.703Z,56.97559
2022-09-20T05:44:03.331Z,58.0127
2022-09-20T05:46:03.470Z,58.16309
2022-09-20T05:48:03.358Z,58.71191
2022-09-20T05:50:03.331Z,58.58203
2022-09-20T05:52:03.263Z,58.84375
2022-09-20T05:54:03.255Z,58.73926
2022-09-20T05:56:03.259Z,59.10645
2022-09-20T05:59:12.512Z,59.12598
2022-09-20T06:01:12.001Z,57.88281
2022-09-20T06:03:11.900Z,58.92383
2022-09-20T06:05:11.978Z,58.37402
2022-09-20T06:07:11.906Z,58.0332
2022-09-20T06:09:11.878Z,58.77051
2022-09-20T06:11:11.900Z,55.88965
2022-09-20T06:13:52.253Z,56.58691
2022-09-20T06:15:52.288Z,56.23828
2022-09-20T06:17:52.269Z,55.34082
2022-09-20T06:19:52.298Z,55.25293
2022-09-20T06:21:52.272Z,55.92578
2022-09-20T06:23:52.430Z,55.52441
2022-09-20T06:25:52.291Z,56.43457
2022-09-20T06:27:52.306Z,56.6582
2022-09-20T06:29:45.165Z,57.41406
2022-09-20T06:31:45.201Z,56.21875
2022-09-20T06:33:45.160Z,55.76758
2022-09-20T06:35:45.105Z,56.85742
2022-09-20T06:37:45.231Z,56.62988
2022-09-20T06:39:45.116Z,54.18555
2022-09-20T06:41:45.185Z,52.88281
2022-09-20T06:44:22.288Z,53.1582
2022-09-20T06:46:22.320Z,52.25391
2022-09-20T06:48:22.343Z,53.05469
2022-09-20T06:50:22.266Z,54.43262
2022-09-20T06:52:22.322Z,54.0459
2022-09-20T06:54:22.298Z,52.72656
2022-09-20T06:56:22.256Z,51.92383
2022-09-20T06:58:22.280Z,51.28906
2022-09-20T06:59:56.998Z,50.26563
2022-09-20T07:01:57.053Z,51.75
2022-09-20T07:03:57.024Z,49.75586
2022-09-20T07:05:56.999Z,51.55664
2022-09-20T07:07:57.038Z,51.08984
2022-09-20T07:09:57.090Z,51.25684
2022-09-20T07:11:57.011Z,51.21094
2022-09-20T07:15:24.948Z,53.75293
2022-09-20T07:17:24.905Z,49.95605
2022-09-20T07:19:24.928Z,50.47168
2022-09-20T07:21:24.990Z,50.13574
2022-09-20T07:23:25.040Z,51.61328
2022-09-20T07:25:24.925Z,50.37598
2022-09-20T07:27:29.581Z,50.89063
2022-09-20T07:30:41.338Z,49.87012
2022-09-20T07:32:41.364Z,49.09082
2022-09-20T07:34:41.361Z,49.44531
2022-09-20T07:36:41.328Z,48.54199
2022-09-20T07:38:41.349Z,48.45996
2022-09-20T07:40:41.331Z,48.43457
2022-09-20T07:42:41.318Z,46.30957
2022-09-20T07:45:34.939Z,48.00586
2022-09-20T07:47:34.885Z,50.40625
2022-09-20T07:49:34.877Z,47.99512
2022-09-20T07:51:34.836Z,47.93066
2022-09-20T07:53:34.836Z,47.27246
2022-09-20T07:55:34.852Z,45.58887
2022-09-20T07:57:34.833Z,46.14355
2022-09-20T08:00:38.518Z,47.87695
2022-09-20T08:02:38.521Z,47.54688
2022-09-20T08:04:38.476Z,47.64063
2022-09-20T08:06:38.458Z,47.91016
2022-09-20T08:08:38.431Z,47.74512
2022-09-20T08:10:38.479Z,47.89941
2022-09-20T08:15:31.416Z,47.59473
2022-09-20T08:17:31.420Z,46.75586
2022-09-20T08:19:31.440Z,47.46777
2022-09-20T08:21:31.427Z,45.39844
2022-09-20T08:23:31.457Z,46.85645
2022-09-20T08:25:31.391Z,47.2002
2022-09-20T08:27:31.418Z,45.20801
2022-09-20T08:31:18.193Z,47.26465
2022-09-20T08:33:18.028Z,46.99707
2022-09-20T08:35:18.067Z,45.85254
2022-09-20T08:37:18.024Z,46.27246
2022-09-20T08:41:18.025Z,46.4248
2022-09-20T08:43:22.785Z,43.74902
2022-09-20T08:45:45.955Z,43.8125
2022-09-20T08:47:45.813Z,40.88867
2022-09-20T08:49:46.875Z,43.66406
2022-09-20T08:51:48.894Z,43.32031
2022-09-20T08:53:49.555Z,43.02344
2022-09-20T08:55:45.774Z,44.71387
2022-09-20T08:57:45.756Z,44.79199
2022-09-20T09:01:35.335Z,44.71289
2022-09-20T09:03:35.367Z,43.70605
2022-09-20T09:05:35.354Z,43.87988
2022-09-20T09:07:35.346Z,45.04297
2022-09-20T09:09:38.053Z,44.74805
2022-09-20T09:11:35.352Z,43.7793
2022-09-20T09:13:35.366Z,43.65137
2022-09-20T09:16:11.224Z,42.65137
2022-09-20T09:18:11.082Z,42.0625
2022-09-20T09:20:11.089Z,42.6416
2022-09-20T09:22:11.092Z,42.00879
2022-09-20T09:24:11.106Z,39.28613
2022-09-20T09:26:11.142Z,39.08398
2022-09-20T09:28:11.075Z,40.1416
2022-09-20T09:31:12.411Z,41.76367
2022-09-20T09:33:12.341Z,42.02637
2022-09-20T09:35:12.363Z,41.89355
2022-09-20T09:37:12.324Z,41.01953
2022-09-20T09:39:12.410Z,41.90234
2022-09-20T09:41:12.336Z,40.66016
2022-09-20T09:43:12.364Z,39.49414
2022-09-20T09:46:39.228Z,40.31641
2022-09-20T09:48:40.601Z,39.53613
2022-09-20T09:50:39.242Z,40.3291
2022-09-20T09:52:39.215Z,38.7168
2022-09-20T09:54:39.245Z,38.47656
2022-09-20T09:56:39.230Z,39.31152
2022-09-20T09:58:39.259Z,39.35742
2022-09-20T10:01:33.915Z,38.66895
2022-09-20T10:03:32.943Z,39.29883
2022-09-20T10:05:32.877Z,38.56543
2022-09-20T10:07:32.927Z,38.11035
2022-09-20T10:09:32.945Z,37.88086
2022-09-20T10:11:32.877Z,37.55762
2022-09-20T10:13:40.719Z,36.67285
2022-09-20T10:17:09.792Z,37.99609
2022-09-20T10:19:09.776Z,37.37988
2022-09-20T10:21:09.749Z,37.75781
2022-09-20T10:23:39.757Z,37.47754
2022-09-20T10:25:09.773Z,37.68164
2022-09-20T10:27:09.772Z,39.44141
2022-09-20T10:29:09.798Z,38.30469
2022-09-20T10:32:22.646Z,38.70508
2022-09-20T10:34:22.655Z,38.2998
2022-09-20T10:36:22.619Z,38.35547
2022-09-20T10:38:22.658Z,40.63086
2022-09-20T10:40:22.730Z,39.1875
2022-09-20T10:42:22.606Z,36.72461
2022-09-20T10:44:22.654Z,37.1084
2022-09-20T10:47:13.432Z,39.0791
2022-09-20T10:49:13.319Z,36.66211
2022-09-20T10:51:13.300Z,38.09668
2022-09-20T10:53:13.328Z,37.28027
2022-09-20T10:55:13.349Z,38.67773
2022-09-20T10:57:13.299Z,36.56055
2022-09-20T10:59:13.298Z,36.7334
2022-09-20T11:02:20.847Z,37.42676
2022-09-20T11:04:20.699Z,37.75195
2022-09-20T11:06:20.652Z,39.24512
2022-09-20T11:08:20.698Z,39.10254
2022-09-20T11:10:20.640Z,36.39453
2022-09-20T11:12:20.629Z,36.12988
2022-09-20T11:14:20.607Z,36.79199
2022-09-20T11:17:15.945Z,36.44629
2022-09-20T11:19:15.908Z,36.40723
2022-09-20T11:21:15.968Z,36.76563
2022-09-20T11:23:15.937Z,37.24414
2022-09-20T11:25:22.394Z,37.75781
2022-09-20T11:27:15.955Z,38.49902
2022-09-20T11:29:16.024Z,37.88965
2022-09-20T11:31:16.044Z,37.60254
2022-09-20T11:32:29.767Z,38.06055
2022-09-20T11:34:29.807Z,36.65234
2022-09-20T11:36:29.774Z,37.50488
2022-09-20T11:38:29.761Z,37.53223
2022-09-20T11:40:29.960Z,37.67578
2022-09-20T11:42:29.782Z,38.86621
2022-09-20T11:44:29.788Z,38.16504
2022-09-20T11:48:12.849Z,37.44434
2022-09-20T11:50:12.790Z,37.75293
2022-09-20T11:52:12.806Z,37.7627
2022-09-20T11:54:12.792Z,37.07031
2022-09-20T11:56:12.766Z,36.83691
2022-09-20T11:58:12.797Z,35.50879
2022-09-20T12:00:12.769Z,36.77344
2022-09-20T12:03:12.467Z,38.30078
2022-09-20T12:05:12.250Z,38.76465
2022-09-20T12:07:18.181Z,37.65625
2022-09-20T12:09:12.295Z,37.92578
2022-09-20T12:11:12.245Z,36.70117
2022-09-20T12:13:12.223Z,36.70996
2022-09-20T12:15:12.262Z,37.00879
2022-09-20T12:18:39.691Z,39.14551
2022-09-20T12:20:39.725Z,37.34961
2022-09-20T12:22:39.708Z,37.41895
2022-09-20T12:24:45.743Z,37.73633
2022-09-20T12:26:39.697Z,37.87598
2022-09-20T12:28:39.683Z,38.33984
2022-09-20T12:30:39.693Z,37.29102
2022-09-20T12:33:36.201Z,36.61035
2022-09-20T12:35:36.161Z,37.04785
2022-09-20T12:37:36.168Z,36.84766
2022-09-20T12:39:36.167Z,37.35254
2022-09-20T12:41:36.142Z,38.83789
2022-09-20T12:43:36.182Z,37.5166
2022-09-20T12:45:37.437Z,37.25195
2022-09-20T12:48:49.120Z,36.83984
2022-09-20T12:50:48.820Z,37.04883
2022-09-20T12:52:48.873Z,37.07422
2022-09-20T12:54:48.852Z,37.88281
2022-09-20T12:56:48.884Z,37.36523
2022-09-20T12:58:48.814Z,38.36914
2022-09-20T13:00:49.017Z,37.71289
2022-09-20T13:03:51.373Z,38.15137
2022-09-20T13:05:51.471Z,37.7041
2022-09-20T13:07:51.371Z,37.66602
2022-09-20T13:09:51.396Z,37.20508
2022-09-20T13:11:52.107Z,37.89355
2022-09-20T13:13:51.416Z,37.96582
2022-09-20T13:15:51.428Z,37.92969
2022-09-20T13:19:19.036Z,37.94727
2022-09-20T13:21:19.142Z,37.25488
2022-09-20T13:23:19.033Z,37.82715
2022-09-20T13:25:19.129Z,38.50488
2022-09-20T13:27:20.167Z,39.13672
2022-09-20T13:29:19.063Z,39.06055
2022-09-20T13:31:19.198Z,39.11816
2022-09-20T13:34:35.810Z,37.5293
2022-09-20T13:36:35.841Z,38.73047
2022-09-20T13:38:35.861Z,38.66504
2022-09-20T13:40:35.932Z,38.00098
2022-09-20T13:42:35.845Z,37.75684
2022-09-20T13:44:35.828Z,37.84375
2022-09-20T13:46:35.859Z,38.00684
2022-09-20T13:49:16.007Z,38.10742
2022-09-20T13:51:16.007Z,38.14355
2022-09-20T13:53:40.914Z,37.93945
2022-09-20T13:55:15.990Z,37.79883
2022-09-20T13:57:16.033Z,38.38184
2022-09-20T13:59:19.663Z,39.18848
2022-09-20T14:01:16.276Z,37.97266
2022-09-20T14:04:04.340Z,38.8916
2022-09-20T14:06:04.119Z,39.37988
2022-09-20T14:08:04.187Z,39.45508
2022-09-20T14:10:03.989Z,39.5752
2022-09-20T14:12:03.963Z,39.34863
2022-09-20T14:14:03.994Z,39.24805
2022-09-20T14:16:04.033Z,39.06738
2022-09-20T14:18:04.020Z,39.19043
2022-09-20T14:20:05.015Z,39.25684
2022-09-20T14:22:04.974Z,38.44922
2022-09-20T14:24:05.001Z,39.20508
2022-09-20T14:26:04.994Z,39.62988
2022-09-20T14:28:05.007Z,39.07813
2022-09-20T14:30:04.998Z,39.57227
2022-09-20T14:32:04.974Z,39.49512
2022-09-20T14:34:59.867Z,39.69434
2022-09-20T14:36:59.867Z,40.80566
2022-09-20T14:38:59.935Z,39.85254
2022-09-20T14:40:59.852Z,39.46875
2022-09-20T14:42:59.882Z,38.94531
2022-09-20T14:44:59.908Z,40.05078
2022-09-20T14:46:59.889Z,40.29688
2022-09-20T14:50:01.318Z,39.02539
2022-09-20T14:52:01.191Z,41.29102
2022-09-20T14:54:01.123Z,38.68359
2022-09-20T14:56:01.130Z,39.27441
2022-09-20T14:58:01.149Z,40.72266
2022-09-20T15:00:01.144Z,39.99512
2022-09-20T15:02:01.167Z,39.72949
2022-09-20T15:04:56.757Z,41.72168
2022-09-20T15:06:56.714Z,40.54883
2022-09-20T15:08:56.703Z,41.69824
2022-09-20T15:10:56.736Z,40.03711
2022-09-20T15:12:56.771Z,40.28613
2022-09-20T15:14:56.697Z,41.01953
2022-09-20T15:16:56.718Z,40.67676
2022-09-20T15:20:24.407Z,41.8291
2022-09-20T15:22:17.719Z,41.41797
2022-09-20T15:24:17.732Z,41.70801
2022-09-20T15:26:17.710Z,42.17285
2022-09-20T15:28:17.750Z,41.23047
2022-09-20T15:30:17.714Z,41.91699
2022-09-20T15:32:17.801Z,42.29785
2022-09-20T15:35:43.163Z,41.93457
2022-09-20T15:37:43.184Z,42.43066
2022-09-20T15:39:43.143Z,42.375
2022-09-20T15:41:43.166Z,42.9873
2022-09-20T15:43:43.160Z,42.29883
2022-09-20T15:45:43.266Z,41.74316
2022-09-20T15:47:43.181Z,41.68066
2022-09-20T15:50:53.110Z,43.25293
2022-09-20T15:52:59.922Z,43.35449
2022-09-20T15:54:53.081Z,44.12012
2022-09-20T15:56:53.031Z,44.38379
2022-09-20T15:58:53.018Z,44.8252
2022-09-20T16:00:53.125Z,44.20996
2022-09-20T16:02:53.129Z,45.06055
2022-09-20T16:06:04.482Z,46.15039
2022-09-20T16:07:54.789Z,45.79688
2022-09-20T16:09:54.625Z,46.71289
2022-09-20T16:11:54.608Z,46.76465
2022-09-20T16:13:54.632Z,46.49902
2022-09-20T16:15:54.801Z,46.60547
2022-09-20T16:17:54.602Z,46.97266
2022-09-20T16:21:20.994Z,47.37305
2022-09-20T16:23:26.157Z,47.37402
2022-09-20T16:25:20.867Z,47.72363
2022-09-20T16:27:20.938Z,47.62891
2022-09-20T16:29:20.965Z,47.88379
2022-09-20T16:31:21.122Z,48.19238
2022-09-20T16:33:20.920Z,49.02246
2022-09-20T16:36:10.569Z,49.44824
2022-09-20T16:38:10.549Z,49.46191
2022-09-20T16:40:10.611Z,50.05957
2022-09-20T16:42:10.518Z,50.74609
2022-09-20T16:44:10.567Z,51.0127
2022-09-20T16:46:10.488Z,50.91211
2022-09-20T16:48:10.462Z,51.42871
2022-09-20T16:51:18.072Z,51.47949
2022-09-20T16:53:18.186Z,51.67285
2022-09-20T16:55:18.041Z,51.97754
2022-09-20T16:57:18.046Z,51.95996
2022-09-20T16:59:18.097Z,52.18652
2022-09-20T17:01:18.106Z,52.22363
2022-09-20T17:03:18.016Z,52.2627
2022-09-20T17:06:10.420Z,52.43262
2022-09-20T17:08:10.349Z,52.84668
2022-09-20T17:10:10.465Z,52.93164
2022-09-20T17:12:10.354Z,53.19824
2022-09-20T17:14:10.378Z,53.32617
2022-09-20T17:16:10.484Z,53.67676
2022-09-20T17:18:15.642Z,53.89551
2022-09-20T17:20:10.405Z,53.93945
2022-09-20T17:21:44.294Z,54.00586
2022-09-20T17:23:51.136Z,54.12109
2022-09-20T17:25:44.452Z,54.10645
2022-09-20T17:27:44.275Z,54.46973
2022-09-20T17:29:44.298Z,54.70801
2022-09-20T17:31:44.423Z,54.65723
2022-09-20T17:33:44.263Z,54.81055
2022-09-20T17:37:20.537Z,55.7207
2022-09-20T17:39:20.521Z,55.52344
2022-09-20T17:41:20.735Z,55.58496
2022-09-20T17:43:20.621Z,55.73047
2022-09-20T17:45:20.509Z,55.87305
2022-09-20T17:47:20.599Z,56.23633
2022-09-20T17:49:20.547Z,56.00977
2022-09-20T17:51:30.752Z,56.09668
2022-09-20T17:53:30.759Z,56.29395
2022-09-20T17:55:30.892Z,56.3457
2022-09-20T17:57:30.799Z,56.47949
2022-09-20T17:59:30.780Z,56.50293
2022-09-20T18:01:30.758Z,56.6123
2022-09-20T18:03:30.783Z,56.64258
2022-09-20T18:05:30.744Z,56.62891
2022-09-20T18:07:08.775Z,56.67773
2022-09-20T18:09:08.767Z,56.83887
2022-09-20T18:11:08.705Z,57.16113
2022-09-20T18:13:08.765Z,57.25098
2022-09-20T18:15:08.738Z,57.25879
2022-09-20T18:17:08.729Z,57.3125
2022-09-20T18:19:08.794Z,57.37207
2022-09-20T18:22:45.168Z,57.5332
2022-09-20T18:24:45.175Z,57.24316
2022-09-20T18:26:45.221Z,57.82813
2022-09-20T18:28:49.032Z,57.86816
2022-09-20T18:30:45.184Z,58.00293
2022-09-20T18:32:45.147Z,57.97949
2022-09-20T18:34:45.197Z,58.06934
2022-09-20T18:37:35.931Z,57.95898
2022-09-20T18:39:35.962Z,58.24316
2022-09-20T18:41:35.917Z,58.4502
2022-09-20T18:43:35.882Z,58.14844
2022-09-20T18:45:35.994Z,58.37402
2022-09-20T18:47:35.885Z,58.3457
2022-09-20T18:49:35.966Z,58.4502
2022-09-20T18:52:42.884Z,58.26563
2022-09-20T18:54:42.840Z,58.32617
2022-09-20T18:56:42.803Z,58.14648
2022-09-20T18:58:42.785Z,58.3418
2022-09-20T19:00:43.024Z,58.89844
2022-09-20T19:02:42.778Z,58.9043
2022-09-20T19:04:42.774Z,59.33691
2022-09-20T19:08:10.672Z,59.06738
2022-09-20T19:10:10.673Z,59.3418
2022-09-20T19:12:10.668Z,59.22852
2022-09-20T19:14:10.640Z,59.48242
2022-09-20T19:16:10.762Z,59.66797
2022-09-20T19:18:10.691Z,59.79199
2022-09-20T19:20:10.705Z,59.69922
2022-09-20T19:23:28.001Z,59.78809
2022-09-20T19:25:28.032Z,59.72266
2022-09-20T19:27:28.062Z,59.37891
2022-09-20T19:29:28.006Z,59.9209
2022-09-20T19:31:28.314Z,59.69922
2022-09-20T19:33:27.978Z,60.0459
2022-09-20T19:35:27.987Z,59.97363
2022-09-20T19:37:54.415Z,60.01465
2022-09-20T19:39:54.416Z,60.08691
2022-09-20T19:41:54.472Z,60.21582
2022-09-20T19:43:54.418Z,60.21484
2022-09-20T19:45:54.451Z,60.2793
2022-09-20T19:47:54.445Z,60.34375
2022-09-20T19:49:54.410Z,60.60156
2022-09-20T19:53:17.399Z,60.56543
2022-09-20T19:55:17.457Z,60.55469
2022-09-20T19:57:17.402Z,60.75684
2022-09-20T19:59:17.384Z,60.86719
2022-09-20T20:01:17.478Z,61.11914
2022-09-20T20:03:17.427Z,60.58203
2022-09-20T20:05:17.353Z,61.06836
2022-09-20T20:08:11.417Z,61.48926
2022-09-20T20:10:11.331Z,61.51563
2022-09-20T20:12:11.414Z,61.78809
2022-09-20T20:14:11.354Z,62.08789
2022-09-20T20:16:11.466Z,61.98047
2022-09-20T20:18:16.830Z,62.29199
2022-09-20T20:20:11.458Z,62.72168
2022-09-20T20:22:11.445Z,62.52637
2022-09-20T20:23:47.518Z,62.23535
2022-09-20T20:25:47.507Z,62.09082
2022-09-20T20:27:47.469Z,62.53223
2022-09-20T20:29:47.502Z,62.19727
2022-09-20T20:31:47.496Z,62.32227
2022-09-20T20:33:47.452Z,62.0625
2022-09-20T20:35:47.564Z,62.38574
2022-09-20T20:39:19.446Z,62.89355
2022-09-20T20:41:19.489Z,62.37891
2022-09-20T20:43:19.493Z,62.80762
2022-09-20T20:45:19.463Z,62.60938
2022-09-20T20:47:19.425Z,62.35156
2022-09-20T20:49:19.558Z,62.92773
2022-09-20T20:51:19.954Z,63.22461
2022-09-20T20:54:17.251Z,63.00586
2022-09-20T20:56:17.244Z,62.94238
2022-09-20T20:58:17.239Z,62.6377
2022-09-20T21:00:17.253Z,62.95117
2022-09-20T21:02:17.358Z,62.94043
2022-09-20T21:04:17.350Z,62.83301
2022-09-20T21:06:17.221Z,63.44043
2022-09-20T21:09:36.809Z,62.91211
2022-09-20T21:11:36.831Z,62.86328
2022-09-20T21:13:36.815Z,62.57031
2022-09-20T21:15:36.859Z,62.62305
2022-09-20T21:17:36.785Z,62.89453
2022-09-20T21:19:36.812Z,63.07715
2022-09-20T21:21:36.744Z,63.10254
2022-09-20T21:24:26.304Z,63.12109
2022-09-20T21:26:26.387Z,63.20117
2022-09-20T21:28:26.356Z,63.03418
2022-09-20T21:30:26.282Z,63.2627
2022-09-20T21:32:26.285Z,63.33105
2022-09-20T21:34:26.280Z,63.93262
2022-09-20T21:36:26.270Z,63.5625
2022-09-20T21:39:02.527Z,63.71484
2022-09-20T21:41:02.525Z,63.53711
2022-09-20T21:43:02.541Z,63.59961
2022-09-20T21:45:02.519Z,63.58496
2022-09-20T21:47:02.479Z,63.98828
2022-09-20T21:49:02.650Z,64.00391
2022-09-20T21:51:02.498Z,64.12402
2022-09-20T21:53:02.500Z,64.73047
2022-09-20T21:54:39.557Z,64.53125
2022-09-20T21:56:39.594Z,65.06543
2022-09-20T21:58:39.721Z,64.60938
2022-09-20T22:00:39.536Z,64.7207
2022-09-20T22:02:39.684Z,64.50781
2022-09-20T22:04:39.529Z,64.21289
2022-09-20T22:06:39.570Z,63.88477
2022-09-20T22:10:01.032Z,63.99707
2022-09-20T22:12:01.114Z,64.18848
2022-09-20T22:14:01.084Z,63.86523
2022-09-20T22:16:01.147Z,63.82422
2022-09-20T22:18:01.116Z,63.73926
2022-09-20T22:20:01.038Z,63.96582
2022-09-20T22:22:01.030Z,63.63086
2022-09-20T22:25:15.854Z,63.22168
2022-09-20T22:27:15.816Z,63.85156
2022-09-20T22:29:15.836Z,64.02832
2022-09-20T22:31:15.849Z,64.0752
2022-09-20T22:33:15.794Z,63.71777
2022-09-20T22:35:15.816Z,63.84277
2022-09-20T22:37:15.852Z,63.74805
2022-09-20T22:40:13.037Z,63.9248
2022-09-20T22:42:12.966Z,64.03027
2022-09-20T22:44:12.919Z,63.91699
2022-09-20T22:46:13.078Z,63.62793
2022-09-20T22:48:12.979Z,63.77148
2022-09-20T22:50:12.908Z,63.7627
2022-09-20T22:52:12.995Z,64.0332
2022-09-20T22:55:35.967Z,64.09668
2022-09-20T22:57:35.958Z,64.08984
2022-09-20T22:59:36.016Z,64.1084
2022-09-20T23:01:36.146Z,64.85547
2022-09-20T23:03:36.158Z,64.47461
2022-09-20T23:05:36.043Z,64.65723
2022-09-20T23:07:35.938Z,64.70313
2022-09-20T23:10:45.316Z,64.72461
2022-09-20T23:12:45.321Z,64.87988
2022-09-20T23:14:45.359Z,65.15625
2022-09-20T23:16:45.517Z,65.65137
2022-09-20T23:18:45.332Z,65.84863
2022-09-20T23:20:45.308Z,65.5957
2022-09-20T23:22:45.324Z,65.28906
2022-09-20T23:25:45.667Z,65.02539
2022-09-20T23:27:45.703Z,65.69336
2022-09-20T23:29:45.704Z,64.92871
2022-09-20T23:31:47.185Z,64.8125
2022-09-20T23:33:46.952Z,65.37598
2022-09-20T23:35:45.681Z,65.37207
2022-09-20T23:37:45.701Z,65.40625
2022-09-20T23:41:21.630Z,64.62305
2022-09-20T23:43:21.556Z,64.5918
2022-09-20T23:45:21.574Z,65.05469
2022-09-20T23:47:21.616Z,65.27637
2022-09-20T23:49:21.737Z,65.41602
2022-09-20T23:51:21.561Z,65.19043
2022-09-20T23:53:21.579Z,64.91406
2022-09-20T23:56:32.420Z,65.74512
2022-09-20T23:58:32.413Z,65.4541
